createdAt,value
2022-11-19T00:01:10.618Z,100363.84
2022-11-19T00:03:38.896Z,100366.38
2022-11-19T00:06:12.324Z,100363.91
2022-11-19T00:08:39.920Z,100363.16
2022-11-19T00:11:41.182Z,100358.94
2022-11-19T00:14:09.549Z,100344.56
2022-11-19T00:16:36.568Z,100363.34
2022-11-19T00:19:04.027Z,100362.81
2022-11-19T00:21:30.761Z,100355.28
2022-11-19T00:23:57.788Z,100353.56
2022-11-19T00:26:24.529Z,100369.25
2022-11-19T00:28:51.220Z,100373.75
2022-11-19T00:31:18.563Z,100372.81
2022-11-19T00:33:45.830Z,100374.22
2022-11-19T00:36:15.400Z,100373.50
2022-11-19T00:38:42.522Z,100383.13
2022-11-19T00:41:09.493Z,100379.91
2022-11-19T00:43:49.401Z,100382.22
2022-11-19T00:46:20.514Z,100391.75
2022-11-19T00:48:49.034Z,100385.63
2022-11-19T00:51:17.218Z,100390.09
2022-11-19T00:53:44.152Z,100388.34
2022-11-19T00:56:13.980Z,100399.22
2022-11-19T00:58:41.697Z,100393.13
2022-11-19T01:01:09.741Z,100399.53
2022-11-19T01:03:37.127Z,100396.97
2022-11-19T01:06:04.148Z,100393.06
2022-11-19T01:08:30.833Z,100398.13
2022-11-19T01:11:05.409Z,100404.56
2022-11-19T01:13:34.850Z,100400.94
2022-11-19T01:16:08.097Z,100405.06
2022-11-19T01:18:36.332Z,100405.09
2022-11-19T01:21:05.401Z,100416.03
2022-11-19T01:23:33.384Z,100420.28
2022-11-19T01:26:00.823Z,100414.13
2022-11-19T01:28:28.035Z,100416.69
2022-11-19T01:30:54.721Z,100411.63
2022-11-19T01:33:22.580Z,100413.50
2022-11-19T01:36:00.237Z,100405.59
2022-11-19T01:38:28.155Z,100416.28
2022-11-19T01:40:55.880Z,100420.06
2022-11-19T01:43:43.443Z,100424.63
2022-11-19T01:46:12.751Z,100419.88
2022-11-19T01:48:44.772Z,100419.78
2022-11-19T01:51:14.429Z,100424.91
2022-11-19T01:53:41.140Z,100427.44
2022-11-19T01:56:09.159Z,100436.09
2022-11-19T01:58:39.770Z,100443.41
2022-11-19T02:01:08.092Z,100427.94
2022-11-19T02:03:36.489Z,100434.81
2022-11-19T03:24:58.949Z,100486.28
2022-11-19T03:28:19.587Z,100473.88
2022-11-19T03:31:14.040Z,100483.50
2022-11-19T03:40:19.590Z,100497.91
2022-11-19T03:45:49.913Z,100469.50
2022-11-19T03:48:20.390Z,100479.91
2022-11-19T03:50:49.845Z,100492.22
2022-11-19T03:53:17.957Z,100488.78
2022-11-19T03:55:51.442Z,100498.16
2022-11-19T03:58:18.081Z,100487.97
2022-11-19T04:00:44.808Z,100505.16
2022-11-19T04:03:11.396Z,100492.03
2022-11-19T04:05:37.992Z,100505.91
2022-11-19T04:08:04.877Z,100508.34
2022-11-19T04:10:31.619Z,100506.38
2022-11-19T04:12:58.139Z,100497.88
2022-11-19T04:15:24.983Z,100510.53
2022-11-19T04:17:51.687Z,100509.97
2022-11-19T04:20:18.394Z,100514.09
2022-11-19T04:22:45.076Z,100506.25
2022-11-19T04:25:11.807Z,100510.84
2022-11-19T04:27:38.363Z,100502.56
2022-11-19T04:30:05.455Z,100516.34
2022-11-19T04:32:32.041Z,100521.78
2022-11-19T04:34:58.713Z,100516.50
2022-11-19T04:37:25.315Z,100530.31
2022-11-19T04:39:52.062Z,100507.22
2022-11-19T04:42:18.728Z,100527.69
2022-11-19T04:44:45.416Z,100535.53
2022-11-19T04:47:12.228Z,100538.41
2022-11-19T04:49:38.839Z,100540.97
2022-11-19T04:52:05.580Z,100537.84
2022-11-19T04:54:32.397Z,100560.31
2022-11-19T04:56:59.139Z,100557.81
2022-11-19T04:59:25.798Z,100541.59
2022-11-19T05:01:52.748Z,100558.06
2022-11-19T05:04:19.653Z,100545.75
2022-11-19T05:06:46.239Z,100559.22
2022-11-19T05:09:12.813Z,100551.38
2022-11-19T05:11:39.415Z,100551.53
2022-11-19T05:14:05.988Z,100547.19
2022-11-19T05:16:32.532Z,100567.69
2022-11-19T05:18:59.131Z,100568.56
2022-11-19T05:21:25.831Z,100571.78
2022-11-19T05:23:52.388Z,100572.88
2022-11-19T05:26:19.045Z,100570.44
2022-11-19T05:28:46.232Z,100577.53
2022-11-19T05:31:12.825Z,100584.25
2022-11-19T05:33:39.421Z,100592.06
2022-11-19T05:36:06.535Z,100595.53
2022-11-19T05:38:33.148Z,100589.66
2022-11-19T05:40:59.723Z,100602.13
2022-11-19T05:43:27.080Z,100606.59
2022-11-19T05:45:53.732Z,100598.19
2022-11-19T05:48:20.322Z,100607.31
2022-11-19T05:50:46.903Z,100600.75
2022-11-19T05:53:13.473Z,100598.66
2022-11-19T05:55:40.144Z,100609.06
2022-11-19T05:58:06.713Z,100617.75
2022-11-19T06:00:33.358Z,100615.22
2022-11-19T06:02:59.998Z,100605.69
2022-11-19T06:05:26.855Z,100609.38
2022-11-19T06:07:53.366Z,100617.13
2022-11-19T06:10:20.000Z,100620.00
2022-11-19T06:12:46.671Z,100627.16
2022-11-19T06:15:14.257Z,100625.59
2022-11-19T06:17:41.100Z,100631.09
2022-11-19T06:20:10.971Z,100629.66
2022-11-19T06:22:38.593Z,100639.19
2022-11-19T06:25:05.975Z,100643.16
2022-11-19T06:27:32.615Z,100648.59
2022-11-19T06:29:59.248Z,100650.09
2022-11-19T06:32:25.931Z,100661.00
2022-11-19T06:34:52.485Z,100655.81
2022-11-19T06:37:19.047Z,100659.59
2022-11-19T06:39:45.604Z,100653.72
2022-11-19T06:42:30.671Z,100654.53
2022-11-19T06:44:57.276Z,100658.81
2022-11-19T06:47:23.851Z,100661.19
2022-11-19T06:49:50.488Z,100663.91
2022-11-19T06:52:17.240Z,100645.94
2022-11-19T06:54:43.982Z,100668.06
2022-11-19T06:57:10.638Z,100665.75
2022-11-19T06:59:39.043Z,100673.84
2022-11-19T07:02:06.454Z,100677.38
2022-11-19T07:04:34.580Z,100686.28
2022-11-19T07:07:01.817Z,100678.50
2022-11-19T07:09:30.811Z,100679.16
2022-11-19T07:11:57.607Z,100687.50
2022-11-19T07:14:24.237Z,100692.25
2022-11-19T07:16:50.892Z,100696.75
2022-11-19T07:19:17.827Z,100696.88
2022-11-19T07:21:44.771Z,100707.63
2022-11-19T07:24:11.519Z,100700.94
2022-11-19T07:26:38.266Z,100705.91
2022-11-19T07:29:07.632Z,100710.41
2022-11-19T07:31:34.603Z,100696.19
2022-11-19T07:34:01.294Z,100714.44
2022-11-19T07:36:28.067Z,100710.41
2022-11-19T07:38:54.685Z,100702.53
2022-11-19T07:41:39.983Z,100712.72
2022-11-19T07:44:06.790Z,100715.75
2022-11-19T07:46:33.362Z,100710.19
2022-11-19T07:49:00.377Z,100728.38
2022-11-19T07:51:27.596Z,100734.28
2022-11-19T07:53:55.682Z,100731.97
2022-11-19T07:56:23.005Z,100723.69
2022-11-19T07:58:49.893Z,100734.91
2022-11-19T08:01:19.597Z,100741.97
2022-11-19T08:03:52.048Z,100741.16
2022-11-19T08:06:24.007Z,100748.47
2022-11-19T08:08:50.710Z,100750.31
2022-11-19T08:11:17.993Z,100738.94
2022-11-19T08:13:44.644Z,100747.63
2022-11-19T08:16:13.542Z,100745.59
2022-11-19T08:18:40.192Z,100748.13
2022-11-19T08:21:09.996Z,100731.03
2022-11-19T08:23:38.599Z,100746.53
2022-11-19T08:26:08.855Z,100741.66
2022-11-19T08:28:35.371Z,100746.06
2022-11-19T08:31:06.857Z,100751.22
2022-11-19T08:33:34.033Z,100754.06
2022-11-19T08:36:00.767Z,100739.81
2022-11-19T08:38:27.470Z,100750.13
2022-11-19T08:41:14.825Z,100746.13
2022-11-19T08:43:41.978Z,100748.25
2022-11-19T08:46:09.347Z,100756.91
2022-11-19T08:48:36.161Z,100758.72
2022-11-19T08:51:07.824Z,100763.75
2022-11-19T08:53:34.488Z,100761.38
2022-11-19T08:56:01.332Z,100759.47
2022-11-19T08:58:28.015Z,100739.06
2022-11-19T09:00:55.410Z,100755.16
2022-11-19T09:03:21.989Z,100759.00
2022-11-19T09:05:48.661Z,100754.44
2022-11-19T09:08:15.229Z,100767.47
2022-11-19T09:10:41.851Z,100751.44
2022-11-19T09:13:08.507Z,100769.22
2022-11-19T09:15:35.728Z,100770.13
2022-11-19T09:18:02.329Z,100765.88
2022-11-19T09:20:28.879Z,100753.34
2022-11-19T09:22:55.453Z,100765.19
2022-11-19T09:25:22.051Z,100768.66
2022-11-19T09:27:48.644Z,100766.19
2022-11-19T09:30:15.275Z,100764.59
2022-11-19T09:32:41.883Z,100769.69
2022-11-19T09:35:08.640Z,100780.06
2022-11-19T09:37:36.250Z,100774.78
2022-11-19T09:40:04.681Z,100775.78
2022-11-19T09:42:31.229Z,100793.72
2022-11-19T09:45:10.008Z,100787.16
2022-11-19T09:47:48.682Z,100789.69
2022-11-19T09:50:15.273Z,100789.13
2022-11-19T09:52:50.869Z,100791.13
2022-11-19T09:55:29.363Z,100784.44
2022-11-19T09:57:58.037Z,100777.44
2022-11-19T10:00:31.139Z,100779.25
2022-11-19T10:03:01.259Z,100779.38
2022-11-19T10:05:36.870Z,100781.56
2022-11-19T10:08:12.357Z,100786.13
2022-11-19T10:11:03.589Z,100778.59
2022-11-19T10:13:47.374Z,100787.50
2022-11-19T10:16:33.564Z,100786.72
2022-11-19T10:19:21.611Z,100793.66
2022-11-19T10:22:07.037Z,100779.00
2022-11-19T10:24:49.158Z,100776.63
2022-11-19T10:27:36.236Z,100783.38
2022-11-19T10:30:06.798Z,100785.75
2022-11-19T10:32:41.008Z,100780.94
2022-11-19T10:35:15.435Z,100779.88
2022-11-19T10:37:58.357Z,100785.09
2022-11-19T10:40:30.117Z,100791.31
2022-11-19T10:43:25.939Z,100787.84
2022-11-19T10:45:53.514Z,100778.47
2022-11-19T10:48:39.946Z,100788.38
2022-11-19T10:51:21.700Z,100787.81
2022-11-19T10:53:49.513Z,100781.19
2022-11-19T10:56:22.915Z,100779.50
2022-11-19T10:58:57.429Z,100771.47
2022-11-19T11:01:34.302Z,100780.06
2022-11-19T11:04:19.507Z,100768.72
2022-11-19T11:07:03.920Z,100770.94
2022-11-19T11:09:42.805Z,100766.56
2022-11-19T11:12:44.088Z,100773.72
2022-11-19T11:15:26.861Z,100766.72
2022-11-19T11:18:09.118Z,100768.97
2022-11-19T11:20:37.737Z,100760.63
2022-11-19T11:23:15.141Z,100747.56
2022-11-19T11:26:03.835Z,100760.13
2022-11-19T11:28:30.752Z,100736.09
2022-11-19T11:31:06.364Z,100748.22
2022-11-19T11:33:48.687Z,100755.47
2022-11-19T11:36:19.705Z,100747.09
2022-11-19T11:38:49.316Z,100747.66
2022-11-19T11:44:19.903Z,100747.81
2022-11-19T11:46:50.258Z,100738.47
2022-11-19T11:49:26.261Z,100747.19
2022-11-19T11:52:09.727Z,100756.56
2022-11-19T11:54:43.454Z,100752.25
2022-11-19T11:57:18.786Z,100742.84
2022-11-19T11:59:51.618Z,100759.13
2022-11-19T12:02:37.613Z,100742.03
2022-11-19T12:05:13.506Z,100740.97
2022-11-19T12:08:10.066Z,100742.34
2022-11-19T12:11:23.777Z,100731.38
2022-11-19T12:14:11.267Z,100740.50
2022-11-19T12:17:02.782Z,100740.56
2022-11-19T12:19:56.277Z,100733.59
2022-11-19T12:22:42.707Z,100743.38
2022-11-19T12:25:21.102Z,100732.09
2022-11-19T12:28:00.861Z,100733.28
2022-11-19T12:30:39.087Z,100734.84
2022-11-19T12:33:26.995Z,100718.09
2022-11-19T12:36:16.924Z,100734.06
2022-11-19T12:38:53.886Z,100731.66
2022-11-19T12:41:39.161Z,100733.97
2022-11-19T12:44:23.985Z,100733.00
2022-11-19T12:47:22.553Z,100728.81
2022-11-19T12:50:04.598Z,100725.84
2022-11-19T12:52:58.138Z,100737.38
2022-11-19T12:55:27.873Z,100734.41
2022-11-19T12:58:15.147Z,100739.41
2022-11-19T13:00:52.387Z,100735.72
2022-11-19T13:03:30.205Z,100738.25
2022-11-19T13:05:59.693Z,100739.28
2022-11-19T13:08:41.577Z,100745.94
2022-11-19T13:11:32.207Z,100739.56
2022-11-19T13:14:11.481Z,100720.44
2022-11-19T13:16:42.187Z,100699.47
2022-11-19T13:19:19.766Z,100727.41
2022-11-19T13:21:54.178Z,100733.50
2022-11-19T13:24:32.820Z,100732.38
2022-11-19T13:27:06.707Z,100733.78
2022-11-19T13:30:06.866Z,100728.72
2022-11-19T13:32:43.802Z,100730.25
2022-11-19T13:35:17.715Z,100721.00
2022-11-19T13:37:59.314Z,100709.78
2022-11-19T13:40:37.375Z,100715.03
2022-11-19T13:43:38.516Z,100718.44
2022-11-19T13:46:16.756Z,100697.91
2022-11-19T13:49:19.551Z,100713.78
2022-11-19T13:51:50.951Z,100708.59
2022-11-19T13:54:34.327Z,100697.97
2022-11-19T13:57:02.033Z,100706.41
2022-11-19T13:59:39.414Z,100714.03
2022-11-19T14:02:15.693Z,100712.94
2022-11-19T14:05:02.193Z,100714.41
2022-11-19T14:07:35.658Z,100721.63
2022-11-19T14:10:41.384Z,100712.38
2022-11-19T14:13:39.620Z,100718.75
2022-11-19T14:16:37.381Z,100718.13
2022-11-19T14:19:24.640Z,100714.47
2022-11-19T14:22:13.408Z,100715.19
2022-11-19T14:24:58.696Z,100720.84
2022-11-19T14:27:26.514Z,100719.94
2022-11-19T14:30:04.621Z,100723.19
2022-11-19T14:32:47.729Z,100713.22
2022-11-19T14:35:23.700Z,100705.28
2022-11-19T14:37:56.812Z,100714.97
2022-11-19T14:40:35.039Z,100712.31
2022-11-19T14:43:21.365Z,100709.69
2022-11-19T14:46:06.435Z,100714.34
2022-11-19T14:48:47.184Z,100687.78
2022-11-19T14:51:17.744Z,100709.84
2022-11-19T14:54:00.984Z,100709.84
2022-11-19T14:56:28.055Z,100706.75
2022-11-19T14:59:02.453Z,100696.63
2022-11-19T15:01:29.311Z,100702.44
2022-11-19T15:04:00.971Z,100694.19
2022-11-19T15:06:28.615Z,100699.31
2022-11-19T15:09:01.934Z,100696.16
2022-11-19T15:12:01.563Z,100697.53
2022-11-19T15:14:34.357Z,100702.44
2022-11-19T15:17:06.689Z,100698.38
2022-11-19T15:20:00.121Z,100702.38
2022-11-19T15:22:44.396Z,100704.50
2022-11-19T15:25:44.522Z,100707.78
2022-11-19T15:28:17.329Z,100703.91
2022-11-19T15:31:11.160Z,100705.34
2022-11-19T15:33:51.165Z,100704.31
2022-11-19T15:36:52.371Z,100701.47
2022-11-19T15:39:34.526Z,100686.25
2022-11-19T15:42:06.636Z,100660.47
2022-11-19T15:44:36.361Z,100689.38
2022-11-19T15:47:13.766Z,100677.50
2022-11-19T15:49:42.901Z,100676.31
2022-11-19T15:52:26.482Z,100683.94
2022-11-19T15:55:10.625Z,100684.38
2022-11-19T15:57:43.085Z,100690.41
2022-11-19T16:00:17.569Z,100691.75
2022-11-19T16:02:46.802Z,100688.03
2022-11-19T16:05:29.699Z,100684.09
2022-11-19T16:07:59.847Z,100685.22
2022-11-19T16:10:39.955Z,100687.47
2022-11-19T16:13:51.492Z,100687.34
2022-11-19T16:16:46.552Z,100701.16
2022-11-19T16:19:15.401Z,100700.88
2022-11-19T16:21:47.648Z,100699.63
2022-11-19T16:24:36.422Z,100706.53
2022-11-19T16:27:04.829Z,100697.53
2022-11-19T16:29:36.156Z,100700.38
2022-11-19T16:32:04.655Z,100703.38
2022-11-19T16:34:36.840Z,100715.16
2022-11-19T16:37:03.794Z,100695.69
2022-11-19T16:39:32.232Z,100710.03
2022-11-19T16:42:19.906Z,100710.09
2022-11-19T16:44:54.798Z,100711.81
2022-11-19T16:47:24.433Z,100708.25
2022-11-19T16:49:51.181Z,100709.72
2022-11-19T16:52:50.395Z,100712.28
2022-11-19T16:55:20.016Z,100717.94
2022-11-19T16:57:51.003Z,100718.06
2022-11-19T17:00:23.618Z,100718.38
2022-11-19T17:02:51.356Z,100718.31
2022-11-19T17:05:24.707Z,100704.13
2022-11-19T17:07:53.864Z,100713.81
2022-11-19T17:10:31.193Z,100713.72
2022-11-19T17:13:33.510Z,100718.78
2022-11-19T17:16:18.270Z,100717.00
2022-11-19T17:18:45.061Z,100714.88
2022-11-19T17:21:30.258Z,100715.44
2022-11-19T17:23:57.251Z,100711.19
2022-11-19T17:26:27.496Z,100718.50
2022-11-19T17:29:07.196Z,100713.38
2022-11-19T17:31:33.870Z,100710.50
2022-11-19T17:34:42.495Z,100718.38
2022-11-19T17:37:09.451Z,100700.38
2022-11-19T17:39:36.074Z,100706.50
2022-11-19T17:42:22.332Z,100718.28
2022-11-19T17:44:49.140Z,100690.88
2022-11-19T17:47:24.484Z,100706.13
2022-11-19T17:49:52.363Z,100710.50
2022-11-19T17:52:30.423Z,100718.41
2022-11-19T17:55:02.719Z,100716.13
2022-11-19T17:57:29.334Z,100714.81
2022-11-19T17:59:56.031Z,100718.75
2022-11-19T18:02:22.859Z,100718.56
2022-11-19T18:04:49.714Z,100712.09
2022-11-19T18:07:16.437Z,100723.22
2022-11-19T18:09:43.050Z,100728.69
2022-11-19T18:12:15.974Z,100734.22
2022-11-19T18:14:43.209Z,100732.56
2022-11-19T18:17:14.558Z,100745.28
2022-11-19T18:19:41.638Z,100728.34
2022-11-19T18:22:17.216Z,100734.00
2022-11-19T18:24:45.713Z,100746.41
2022-11-19T18:27:12.424Z,100743.69
2022-11-19T18:29:39.172Z,100750.69
2022-11-19T18:32:05.901Z,100746.75
2022-11-19T18:34:32.507Z,100746.53
2022-11-19T18:36:59.115Z,100747.38
2022-11-19T18:39:25.896Z,100744.50
2022-11-19T18:41:52.484Z,100741.34
2022-11-19T18:44:34.309Z,100743.19
2022-11-19T18:47:12.690Z,100750.75
2022-11-19T18:49:39.539Z,100754.03
2022-11-19T18:52:08.299Z,100755.97
2022-11-19T18:54:35.383Z,100750.88
2022-11-19T18:57:02.540Z,100748.63
2022-11-19T18:59:30.118Z,100745.94
2022-11-19T19:01:56.852Z,100743.19
2022-11-19T19:04:24.210Z,100751.63
2022-11-19T19:06:51.210Z,100745.41
2022-11-19T19:09:21.204Z,100744.72
2022-11-19T19:12:13.142Z,100745.97
2022-11-19T19:14:40.338Z,100727.34
2022-11-19T19:17:06.968Z,100739.97
2022-11-19T19:19:33.708Z,100734.84
2022-11-19T19:22:00.524Z,100737.84
2022-11-19T19:24:27.400Z,100732.22
2022-11-19T19:26:54.087Z,100732.75
2022-11-19T19:29:21.497Z,100721.25
2022-11-19T19:31:48.478Z,100729.22
2022-11-19T19:34:15.489Z,100722.31
2022-11-19T19:36:47.671Z,100723.91
2022-11-19T19:39:32.455Z,100727.06
2022-11-19T19:41:59.039Z,100728.16
2022-11-19T19:44:25.637Z,100724.19
2022-11-19T19:46:52.286Z,100718.09
2022-11-19T19:49:20.095Z,100708.59
2022-11-19T19:51:47.420Z,100723.13
2022-11-19T19:54:16.651Z,100717.06
2022-11-19T19:56:46.099Z,100703.84
2022-11-19T19:59:13.850Z,100714.06
2022-11-19T20:01:45.311Z,100698.22
2022-11-19T20:04:12.099Z,100699.63
2022-11-19T20:06:46.187Z,100711.31
2022-11-19T20:09:13.432Z,100719.41
2022-11-19T20:11:40.128Z,100710.00
2022-11-19T20:14:07.507Z,100706.13
2022-11-19T20:16:34.999Z,100710.63
2022-11-19T20:19:02.061Z,100715.88
2022-11-19T20:21:33.723Z,100717.03
2022-11-19T20:24:00.404Z,100719.06
2022-11-19T20:26:29.544Z,100720.78
2022-11-19T20:28:56.855Z,100726.03
2022-11-19T20:31:24.304Z,100726.22
2022-11-19T20:33:55.234Z,100723.38
2022-11-19T20:36:24.474Z,100723.81
2022-11-19T20:38:51.812Z,100730.09
2022-11-19T20:41:37.785Z,100724.44
2022-11-19T20:44:22.132Z,100726.00
2022-11-19T20:47:07.324Z,100719.69
2022-11-19T20:49:38.143Z,100723.03
2022-11-19T20:52:06.336Z,100720.50
2022-11-19T20:54:33.779Z,100721.13
2022-11-19T20:57:00.843Z,100715.28
2022-11-19T20:59:28.425Z,100720.38
2022-11-19T21:01:57.062Z,100713.41
2022-11-19T21:04:25.447Z,100711.44
2022-11-19T21:06:54.028Z,100719.94
2022-11-19T21:09:21.913Z,100721.03
2022-11-19T21:11:49.977Z,100712.22
2022-11-19T21:14:16.649Z,100708.63
2022-11-19T21:16:45.899Z,100708.06
2022-11-19T21:19:12.780Z,100704.09
2022-11-19T21:21:39.461Z,100708.31
2022-11-19T21:24:07.101Z,100712.88
2022-11-19T21:26:34.220Z,100714.88
2022-11-19T21:29:00.924Z,100711.56
2022-11-19T21:31:41.395Z,100703.81
2022-11-19T21:34:10.411Z,100696.38
2022-11-19T21:36:37.959Z,100701.47
2022-11-19T21:39:06.028Z,100708.78
2022-11-19T21:41:34.293Z,100707.22
2022-11-19T21:44:04.447Z,100708.00
2022-11-19T21:46:31.416Z,100693.88
2022-11-19T21:48:58.160Z,100711.94
2022-11-19T21:51:25.445Z,100707.44
2022-11-19T21:53:58.833Z,100706.44
2022-11-19T21:56:26.897Z,100708.13
2022-11-19T21:58:53.649Z,100691.75
2022-11-19T22:01:20.645Z,100699.78
2022-11-19T22:03:47.761Z,100699.38
2022-11-19T22:06:14.885Z,100691.03
2022-11-19T22:08:42.895Z,100699.78
2022-11-19T22:11:28.838Z,100693.03
2022-11-19T22:13:59.559Z,100699.38
2022-11-19T22:16:27.126Z,100692.72
2022-11-19T22:18:54.036Z,100701.34
2022-11-19T22:21:20.844Z,100709.00
2022-11-19T22:23:47.806Z,100702.75
2022-11-19T22:26:15.542Z,100700.00
2022-11-19T22:28:42.474Z,100699.34
2022-11-19T22:31:09.510Z,100691.78
2022-11-19T22:33:38.744Z,100682.47
2022-11-19T22:36:10.202Z,100679.44
2022-11-19T22:38:38.708Z,100679.69
2022-11-19T22:41:10.331Z,100679.94
2022-11-19T22:43:38.119Z,100679.72
2022-11-19T22:46:05.503Z,100684.75
2022-11-19T22:48:33.218Z,100676.66
2022-11-19T22:51:05.261Z,100684.28
2022-11-19T22:53:34.418Z,100677.44
2022-11-19T22:56:03.181Z,100685.97
2022-11-19T22:58:29.910Z,100681.63
2022-11-19T23:00:57.155Z,100684.59
2022-11-19T23:03:23.971Z,100677.25
2022-11-19T23:05:52.049Z,100681.72
2022-11-19T23:08:18.698Z,100675.94
2022-11-19T23:10:45.778Z,100684.56
2022-11-19T23:13:33.297Z,100681.03
2022-11-19T23:16:13.629Z,100689.69
2022-11-19T23:18:42.108Z,100690.41
2022-11-19T23:21:12.081Z,100682.75
2022-11-19T23:23:39.241Z,100677.75
2022-11-19T23:26:08.064Z,100672.97
2022-11-19T23:28:36.193Z,100669.91
2022-11-19T23:31:08.981Z,100673.13
2022-11-19T23:33:35.981Z,100660.78
2022-11-19T23:36:05.061Z,100660.22
2022-11-19T23:38:31.961Z,100660.59
2022-11-19T23:41:02.860Z,100658.81
2022-11-19T23:43:29.774Z,100659.13
2022-11-19T23:46:04.752Z,100651.59
2022-11-19T23:48:32.621Z,100651.00
2022-11-19T23:51:04.152Z,100649.25
2022-11-19T23:53:30.998Z,100654.44
2022-11-19T23:55:57.886Z,100639.25
2022-11-19T23:58:24.675Z,100644.34
